Time;durP1;ratioP1;P1;durP2;ratioP2;P2;SDS_P1;SDS_P2;PMS_P1;PMS_P2;Temp;Humidity;BMP_temperature;BMP_pressure;BME280_temperature;BME280_humidity;BME280_pressure;Samples;Min_cycle;Max_cycle;Signal;HPM_P1;HPM_P2
2023/03/15 00:00:30;;;;;;;;;;;3.90;1.00;;;;;;5094365;28;19908;-84
2023/03/15 00:03:06;;;;;;;;;;;3.80;1.00;;;;;;5082041;28;19943;-84
2023/03/15 00:05:48;;;;;;;;;;;3.70;1.00;;;;;;5094646;28;19908;-84
2023/03/15 00:08:14;;;;;;;;;;;3.60;1.00;;;;;;5080797;28;19920;-77
2023/03/15 00:10:43;;;;;;;;;;;3.60;1.00;;;;;;5090050;28;19916;-76
2023/03/15 00:13:12;;;;;;;;;;;3.40;1.00;;;;;;5093934;28;20006;-77
2023/03/15 00:15:45;;;;;;;;;;;3.40;1.00;;;;;;5077091;28;19916;-76
2023/03/15 00:18:11;;;;;;;;;;;3.30;1.00;;;;;;5093717;28;19913;-76
2023/03/15 00:20:42;;;;;;;;;;;3.20;1.00;;;;;;5064499;28;19958;-76
2023/03/15 00:23:08;;;;;;;;;;;3.10;1.00;;;;;;5094568;28;19908;-76
2023/03/15 00:25:36;;;;;;;;;;;3.00;1.00;;;;;;5086465;28;20003;-76
2023/03/15 00:28:24;;;;;;;;;;;3.00;1.00;;;;;;5088805;28;19947;-76
2023/03/15 00:31:01;;;;;;;;;;;2.90;1.00;;;;;;5088263;28;19916;-76
2023/03/15 00:33:26;;;;;;;;;;;2.80;1.00;;;;;;5063810;28;19920;-76
2023/03/15 00:35:52;;;;;;;;;;;2.70;1.00;;;;;;5094091;28;19960;-76
2023/03/15 00:38:18;;;;;;;;;;;2.70;1.00;;;;;;5093476;28;20252;-76
2023/03/15 00:40:48;;;;;;;;;;;2.70;1.00;;;;;;5093462;28;19912;-76
2023/03/15 00:43:18;;;;;;;;;;;2.60;1.00;;;;;;5082832;28;19912;-76
2023/03/15 00:45:48;;;;;;;;;;;2.50;1.00;;;;;;5093373;28;19912;-76
2023/03/15 00:48:13;;;;;;;;;;;2.50;1.00;;;;;;5088947;28;19918;-77
2023/03/15 00:50:42;;;;;;;;;;;2.40;1.00;;;;;;5094069;28;19916;-76
2023/03/15 00:53:08;;;;;;;;;;;2.30;1.00;;;;;;5094230;28;19912;-83
2023/03/15 00:55:48;;;;;;;;;;;2.30;1.00;;;;;;5085840;28;20267;-84
2023/03/15 01:01:18;;;;;;;;;;;2.20;1.00;;;;;;5085000;28;19973;-83
2023/03/15 01:03:48;;;;;;;;;;;2.00;1.00;;;;;;5093671;28;19913;-83
2023/03/15 01:09:16;;;;;;;;;;;1.90;1.00;;;;;;5094283;28;19916;-83
2023/03/15 01:14:45;;;;;;;;;;;1.70;1.00;;;;;;5091255;28;19962;-83
2023/03/15 01:20:13;;;;;;;;;;;1.60;1.00;;;;;;5090450;28;20283;-83
2023/03/15 01:26:00;;;;;;;;;;;1.40;1.00;;;;;;5095578;28;19942;-83
2023/03/15 01:31:29;;;;;;;;;;;1.50;1.00;;;;;;5097280;28;19961;-83
2023/03/15 01:34:18;;;;;;;;;;;1.50;1.00;;;;;;5097804;28;19955;-84
2023/03/15 01:36:44;;;;;;;;;;;1.50;1.00;;;;;;5097289;28;20287;-84
2023/03/15 01:39:10;;;;;;;;;;;1.40;1.00;;;;;;5098003;28;19913;-76
2023/03/15 01:41:42;;;;;;;;;;;1.40;1.00;;;;;;5097285;28;19916;-76
2023/03/15 01:44:12;;;;;;;;;;;1.40;1.00;;;;;;5088305;28;19912;-76
2023/03/15 01:46:37;;;;;;;;;;;1.40;1.00;;;;;;5094240;28;19930;-76
2023/03/15 01:49:24;;;;;;;;;;;1.40;1.00;;;;;;5097404;28;20339;-77
2023/03/15 01:51:56;;;;;;;;;;;1.40;1.00;;;;;;5086220;28;19916;-76
2023/03/15 01:57:28;;;;;;;;;;;1.40;1.00;;;;;;5092315;28;20279;-83
2023/03/15 02:00:12;;;;;;;;;;;1.30;1.00;;;;;;5096750;28;19908;-84
2023/03/15 02:02:50;;;;;;;;;;;1.30;1.00;;;;;;5096502;28;19908;-84
2023/03/15 02:08:25;;;;;;;;;;;1.30;1.00;;;;;;5081349;28;20377;-83
2023/03/15 02:10:57;;;;;;;;;;;1.20;1.00;;;;;;5068526;28;19962;-76
2023/03/15 02:13:23;;;;;;;;;;;1.20;1.00;;;;;;5089742;28;19977;-76
2023/03/15 02:15:52;;;;;;;;;;;1.20;1.00;;;;;;5096631;28;19961;-75
2023/03/15 02:18:24;;;;;;;;;;;1.20;1.00;;;;;;5079175;28;20412;-76
2023/03/15 02:20:53;;;;;;;;;;;1.10;1.00;;;;;;5096791;28;19911;-76
2023/03/15 02:23:48;;;;;;;;;;;1.10;1.00;;;;;;5093759;28;20022;-76
2023/03/15 02:32:24;;;;;;;;;;;1.10;1.00;;;;;;5092354;28;19965;-83
2023/03/15 02:38:01;;;;;;;;;;;0.90;1.10;;;;;;5079618;28;19915;-83
2023/03/15 02:40:48;;;;;;;;;;;0.90;4.00;;;;;;5096355;28;19957;-83
2023/03/15 02:43:31;;;;;;;;;;;0.80;4.90;;;;;;5091870;28;19909;-83
2023/03/15 02:46:12;;;;;;;;;;;0.80;7.60;;;;;;5089330;28;20348;-83
2023/03/15 02:54:44;;;;;;;;;;;0.80;6.20;;;;;;5094905;28;20283;-77
2023/03/15 02:57:13;;;;;;;;;;;0.70;8.20;;;;;;5088179;28;19916;-76
2023/03/15 02:59:49;;;;;;;;;;;0.70;9.30;;;;;;5092612;28;20340;-76
2023/03/15 03:02:15;;;;;;;;;;;0.60;11.80;;;;;;5095419;28;20007;-76
2023/03/15 03:04:42;;;;;;;;;;;0.60;16.30;;;;;;5078104;28;19963;-76
2023/03/15 03:07:08;;;;;;;;;;;0.70;18.00;;;;;;5095489;28;19908;-76
2023/03/15 03:15:39;;;;;;;;;;;0.70;16.10;;;;;;5095815;28;20008;-83
2023/03/15 03:18:12;;;;;;;;;;;0.60;13.40;;;;;;5082536;28;20007;-83
2023/03/15 03:23:40;;;;;;;;;;;0.60;13.40;;;;;;5085632;28;19915;-83
2023/03/15 03:26:11;;;;;;;;;;;0.60;15.80;;;;;;5095845;28;19908;-76
2023/03/15 03:28:48;;;;;;;;;;;0.60;15.90;;;;;;5094506;28;19908;-76
2023/03/15 03:31:24;;;;;;;;;;;0.60;19.90;;;;;;5095769;28;19908;-76
2023/03/15 03:33:50;;;;;;;;;;;0.70;23.30;;;;;;5094920;28;20038;-76
2023/03/15 03:36:16;;;;;;;;;;;0.70;33.70;;;;;;5071246;28;20616;-76
2023/03/15 03:38:55;;;;;;;;;;;0.70;34.90;;;;;;5094713;28;19918;-76
2023/03/15 03:44:30;;;;;;;;;;;0.90;35.20;;;;;;5087776;28;19919;-84
2023/03/15 03:53:24;;;;;;;;;;;1.10;24.60;;;;;;5094468;28;19919;-83
2023/03/15 03:56:06;;;;;;;;;;;1.20;19.10;;;;;;5095284;28;20287;-76
2023/03/15 03:58:36;;;;;;;;;;;1.20;15.30;;;;;;5088663;28;19908;-76
2023/03/15 04:01:02;;;;;;;;;;;1.20;13.80;;;;;;5094418;28;19909;-76
2023/03/15 04:03:36;;;;;;;;;;;1.20;11.20;;;;;;5094267;28;21013;-76
2023/03/15 04:06:04;;;;;;;;;;;1.20;10.10;;;;;;5094925;28;19908;-76
2023/03/15 04:08:36;;;;;;;;;;;1.20;9.10;;;;;;5094771;28;19973;-76
2023/03/15 04:11:16;;;;;;;;;;;1.30;6.50;;;;;;5092578;28;19912;-83
2023/03/15 04:13:48;;;;;;;;;;;1.30;3.80;;;;;;5091050;28;20316;-83
2023/03/15 04:16:14;;;;;;;;;;;1.30;3.20;;;;;;5071014;28;19923;-83
2023/03/15 04:21:54;;;;;;;;;;;1.30;2.30;;;;;;5087191;28;19940;-91
2023/03/15 04:27:22;;;;;;;;;;;1.30;2.00;;;;;;5087301;28;20279;-90
2023/03/15 04:30:28;;;;;;;;;;;1.30;1.70;;;;;;5077103;28;19909;-90
2023/03/15 04:36:17;;;;;;;;;;;1.30;1.10;;;;;;5086362;28;20403;-91
2023/03/15 04:47:52;;;;;;;;;;;1.10;1.00;;;;;;5094399;28;19999;-91
2023/03/15 04:56:24;;;;;;;;;;;1.30;1.00;;;;;;5080233;28;19916;-91
2023/03/15 05:04:56;;;;;;;;;;;1.50;1.00;;;;;;5091188;28;20279;-90
2023/03/15 05:07:42;;;;;;;;;;;1.60;1.00;;;;;;5075637;28;19909;-90
2023/03/15 05:10:08;;;;;;;;;;;1.60;1.00;;;;;;5071245;28;19954;-91
2023/03/15 05:15:36;;;;;;;;;;;1.60;1.00;;;;;;5098241;28;20030;-91
2023/03/15 05:21:06;;;;;;;;;;;1.70;1.00;;;;;;5084474;28;19920;-91
2023/03/15 05:30:13;;;;;;;;;;;1.90;1.00;;;;;;5097990;28;19918;-91
2023/03/15 05:36:16;;;;;;;;;;;1.90;1.00;;;;;;5093067;28;19915;-92
2023/03/15 05:38:41;;;;;;;;;;;2.00;1.00;;;;;;5068545;28;19955;-91
2023/03/15 05:41:24;;;;;;;;;;;2.10;1.00;;;;;;5066069;28;19942;-91
2023/03/15 05:46:53;;;;;;;;;;;2.00;1.00;;;;;;5097821;28;19981;-91
2023/03/15 05:52:23;;;;;;;;;;;2.20;1.00;;;;;;5097602;28;20398;-92
2023/03/15 06:00:54;;;;;;;;;;;2.10;1.00;;;;;;5090555;28;20051;-91
2023/03/15 06:03:42;;;;;;;;;;;2.10;1.00;;;;;;5061896;28;20514;-92
2023/03/15 06:06:08;;;;;;;;;;;2.20;1.00;;;;;;5075944;28;19919;-90
2023/03/15 06:11:36;;;;;;;;;;;2.20;1.00;;;;;;5096787;28;19916;-92
2023/03/15 06:14:24;;;;;;;;;;;2.20;1.00;;;;;;5079747;28;19912;-92
2023/03/15 06:17:00;;;;;;;;;;;2.20;1.00;;;;;;5076896;28;20382;-90
2023/03/15 06:19:30;;;;;;;;;;;2.20;1.00;;;;;;5090666;28;19919;-84
2023/03/15 06:25:18;;;;;;;;;;;2.30;3.20;;;;;;5096714;28;19915;-84
2023/03/15 06:31:06;;;;;;;;;;;2.20;4.90;;;;;;5086841;28;20382;-77
2023/03/15 06:33:36;;;;;;;;;;;2.20;5.80;;;;;;5076324;28;20344;-77
2023/03/15 06:36:06;;;;;;;;;;;2.30;6.50;;;;;;5090018;28;19908;-77
2023/03/15 06:38:42;;;;;;;;;;;2.20;6.70;;;;;;5096030;28;19912;-76
2023/03/15 06:41:14;;;;;;;;;;;2.20;10.30;;;;;;5096562;28;20370;-77
2023/03/15 06:46:50;;;;;;;;;;;2.20;13.90;;;;;;5093613;28;19919;-84
2023/03/15 06:49:16;;;;;;;;;;;2.30;15.70;;;;;;5096348;28;19916;-84
2023/03/15 07:00:51;;;;;;;;;;;2.30;11.20;;;;;;5095917;28;20410;-76
2023/03/15 07:03:24;;;;;;;;;;;2.40;10.90;;;;;;5094145;28;19912;-77
2023/03/15 07:06:06;;;;;;;;;;;2.40;8.40;;;;;;5088222;28;19912;-77
2023/03/15 07:08:36;;;;;;;;;;;2.50;10.10;;;;;;5094212;28;20352;-76
2023/03/15 07:11:12;;;;;;;;;;;2.50;6.90;;;;;;5095539;28;19965;-77
2023/03/15 07:13:54;;;;;;;;;;;2.50;10.20;;;;;;5079733;28;20291;-77
2023/03/15 07:16:24;;;;;;;;;;;2.70;9.20;;;;;;5084948;28;19986;-76
2023/03/15 07:19:06;;;;;;;;;;;2.70;4.00;;;;;;5093450;28;19963;-77
2023/03/15 07:21:32;;;;;;;;;;;2.80;2.60;;;;;;5080023;28;19919;-77
2023/03/15 07:24:18;;;;;;;;;;;2.80;1.00;;;;;;5076718;28;20272;-77
2023/03/15 07:26:44;;;;;;;;;;;2.90;1.00;;;;;;5095331;28;19914;-77
2023/03/15 07:35:16;;;;;;;;;;;2.90;1.00;;;;;;5095324;28;20378;-83
2023/03/15 07:37:54;;;;;;;;;;;3.00;1.00;;;;;;5079412;28;19919;-83
2023/03/15 07:40:30;;;;;;;;;;;3.10;1.00;;;;;;5089266;28;19919;-83
2023/03/15 07:43:06;;;;;;;;;;;3.20;1.00;;;;;;5060411;28;19915;-83
2023/03/15 07:45:48;;;;;;;;;;;3.30;1.00;;;;;;5094330;28;19912;-77
2023/03/15 07:48:18;;;;;;;;;;;3.40;1.00;;;;;;5085501;28;19919;-76
2023/03/15 07:51:00;;;;;;;;;;;3.60;1.00;;;;;;5095447;28;19925;-76
2023/03/15 07:56:30;;;;;;;;;;;3.90;1.00;;;;;;5083510;28;20378;-77
2023/03/15 07:58:56;;;;;;;;;;;4.00;1.00;;;;;;5094925;28;19908;-77
2023/03/15 08:01:24;;;;;;;;;;;4.30;1.00;;;;;;5067363;28;19915;-77
2023/03/15 08:03:54;;;;;;;;;;;4.50;1.00;;;;;;5066870;28;20006;-77
2023/03/15 08:06:20;;;;;;;;;;;4.70;1.00;;;;;;5084278;28;19916;-77
2023/03/15 08:08:46;;;;;;;;;;;4.80;1.00;;;;;;5092049;28;20445;-77
2023/03/15 08:11:18;;;;;;;;;;;4.90;1.00;;;;;;5094966;28;20366;-77
2023/03/15 08:14:06;;;;;;;;;;;5.00;1.00;;;;;;5093416;28;19912;-77
2023/03/15 08:16:54;;;;;;;;;;;4.90;1.00;;;;;;5080155;28;19914;-84
2023/03/15 08:19:42;;;;;;;;;;;4.70;1.00;;;;;;5085974;28;19924;-83
2023/03/15 08:28:30;;;;;;;;;;;4.60;1.00;;;;;;5080542;28;19915;-85
2023/03/15 08:31:12;;;;;;;;;;;4.70;1.00;;;;;;5074924;28;19919;-85
2023/03/15 08:36:41;;;;;;;;;;;4.30;1.00;;;;;;5082946;28;19958;-85
2023/03/15 08:39:12;;;;;;;;;;;4.20;1.00;;;;;;5094698;28;19912;-85
2023/03/15 08:44:41;;;;;;;;;;;4.50;1.00;;;;;;5113483;28;19973;-89
2023/03/15 08:47:42;;;;;;;;;;;4.30;1.00;;;;;;5094995;28;20351;-85
2023/03/15 08:50:36;;;;;;;;;;;4.30;1.00;;;;;;5079327;28;19922;-85
2023/03/15 08:56:05;;;;;;;;;;;4.60;1.00;;;;;;5094556;28;20417;-85
2023/03/15 08:58:36;;;;;;;;;;;4.50;1.00;;;;;;5104875;28;19912;-84
2023/03/15 09:04:24;;;;;;;;;;;4.60;1.00;;;;;;5104788;28;19915;-85
2023/03/15 09:07:00;;;;;;;;;;;4.70;1.00;;;;;;5093905;28;19909;-85
2023/03/15 09:09:26;;;;;;;;;;;4.90;1.00;;;;;;5076273;28;19908;-85
2023/03/15 09:14:54;;;;;;;;;;;5.50;1.00;;;;;;5100958;28;20002;-85
2023/03/15 09:20:30;;;;;;;;;;;5.70;1.00;;;;;;5074674;28;19920;-85
2023/03/15 09:22:56;;;;;;;;;;;6.00;1.00;;;;;;5083916;28;20521;-85
2023/03/15 09:28:54;;;;;;;;;;;6.00;1.00;;;;;;5094086;28;20286;-86
2023/03/15 09:31:24;;;;;;;;;;;6.30;1.00;;;;;;5082102;28;19915;-77
2023/03/15 09:34:00;;;;;;;;;;;6.60;1.00;;;;;;5058524;28;19921;-76
2023/03/15 09:36:26;;;;;;;;;;;6.20;1.00;;;;;;5073996;28;19909;-77
2023/03/15 09:38:54;;;;;;;;;;;6.20;1.00;;;;;;5092906;28;19983;-77
2023/03/15 09:41:31;;;;;;;;;;;6.20;1.00;;;;;;5092372;28;20003;-78
2023/03/15 09:43:59;;;;;;;;;;;6.10;1.00;;;;;;5078153;28;19908;-76
2023/03/15 09:46:36;;;;;;;;;;;5.90;1.00;;;;;;5092794;28;20287;-77
2023/03/15 09:49:30;;;;;;;;;;;6.10;1.00;;;;;;5090391;28;20339;-85
2023/03/15 09:52:24;;;;;;;;;;;6.00;1.00;;;;;;5097682;28;19923;-85
2023/03/15 10:04:18;;;;;;;;;;;6.30;1.00;;;;;;5097236;28;19919;-85
2023/03/15 10:16:18;;;;;;;;;;;6.80;1.00;;;;;;5096762;28;20382;-85
2023/03/15 10:18:51;;;;;;;;;;;6.70;1.00;;;;;;5097096;28;19966;-76
2023/03/15 10:21:26;;;;;;;;;;;6.70;1.00;;;;;;5083848;28;19908;-77
2023/03/15 10:23:52;;;;;;;;;;;6.40;1.00;;;;;;5096956;28;19908;-77
2023/03/15 10:26:43;;;;;;;;;;;6.50;1.00;;;;;;5096549;28;19908;-76
2023/03/15 10:29:19;;;;;;;;;;;6.80;1.00;;;;;;5096620;28;19998;-76
2023/03/15 10:31:51;;;;;;;;;;;7.00;1.00;;;;;;5096958;28;20279;-77
2023/03/15 10:34:25;;;;;;;;;;;6.90;1.00;;;;;;5091044;28;20295;-76
2023/03/15 10:36:56;;;;;;;;;;;6.90;1.00;;;;;;5096534;28;19912;-77
2023/03/15 10:39:23;;;;;;;;;;;7.00;1.00;;;;;;5104928;28;19915;-76
2023/03/15 10:41:54;;;;;;;;;;;6.90;1.00;;;;;;5100231;28;19912;-76
2023/03/15 10:44:25;;;;;;;;;;;6.90;1.00;;;;;;5087068;28;19915;-77
2023/03/15 10:47:05;;;;;;;;;;;6.80;1.00;;;;;;5079284;28;19916;-76
2023/03/15 10:49:55;;;;;;;;;;;6.70;1.00;;;;;;5077817;28;19916;-85
2023/03/15 10:55:48;;;;;;;;;;;6.60;1.00;;;;;;5094949;28;19919;-85
2023/03/15 11:01:23;;;;;;;;;;;6.80;1.00;;;;;;5096193;28;19950;-85
2023/03/15 11:07:18;;;;;;;;;;;7.10;1.00;;;;;;5095970;28;19915;-85
2023/03/15 11:10:01;;;;;;;;;;;7.20;1.00;;;;;;5091277;28;20287;-85
2023/03/15 11:13:00;;;;;;;;;;;7.30;1.00;;;;;;5094357;28;19913;-86
2023/03/15 11:18:32;;;;;;;;;;;7.10;1.00;;;;;;5086378;28;19920;-76
2023/03/15 11:21:08;;;;;;;;;;;7.30;1.00;;;;;;5095854;28;19909;-77
2023/03/15 11:23:45;;;;;;;;;;;7.70;1.00;;;;;;5095442;28;19978;-76
2023/03/15 11:26:32;;;;;;;;;;;8.00;1.00;;;;;;5094741;28;20018;-76
2023/03/15 11:29:13;;;;;;;;;;;8.20;1.00;;;;;;5094286;28;19912;-77
2023/03/15 11:31:39;;;;;;;;;;;8.50;1.00;;;;;;5093338;28;19991;-77
2023/03/15 11:40:24;;;;;;;;;;;8.70;1.00;;;;;;5095547;28;19965;-88
2023/03/15 11:46:03;;;;;;;;;;;8.40;1.00;;;;;;5095580;28;19915;-85
2023/03/15 11:48:29;;;;;;;;;;;8.30;1.00;;;;;;5095546;28;19912;-86
2023/03/15 11:50:55;;;;;;;;;;;8.20;1.00;;;;;;5092226;28;19950;-85
2023/03/15 11:56:43;;;;;;;;;;;8.10;1.00;;;;;;5108889;28;19961;-86
2023/03/15 11:59:18;;;;;;;;;;;8.20;1.00;;;;;;5099621;28;20284;-86
2023/03/15 12:07:57;;;;;;;;;;;8.60;1.00;;;;;;5094529;28;19915;-86
2023/03/15 12:14:03;;;;;;;;;;;8.90;1.00;;;;;;5094975;28;20374;-85
2023/03/15 12:19:42;;;;;;;;;;;9.00;1.00;;;;;;5003582;28;19968;-77
2023/03/15 12:22:13;;;;;;;;;;;8.90;1.00;;;;;;5000627;28;20488;-76
2023/03/15 12:24:39;;;;;;;;;;;9.00;1.00;;;;;;5012385;28;19909;-77
2023/03/15 12:33:30;;;;;;;;;;;9.60;1.00;;;;;;4999276;28;19924;-81
2023/03/15 12:36:02;;;;;;;;;;;9.80;1.00;;;;;;4991224;28;19985;-77
2023/03/15 12:38:34;;;;;;;;;;;10.00;1.00;;;;;;5012014;28;20369;-76
2023/03/15 12:41:04;;;;;;;;;;;9.90;1.00;;;;;;5040929;28;19960;-76
2023/03/15 12:43:43;;;;;;;;;;;9.70;1.00;;;;;;5032094;28;20375;-76
2023/03/15 12:46:44;;;;;;;;;;;9.50;1.00;;;;;;5050343;28;19909;-75
2023/03/15 12:49:11;;;;;;;;;;;9.30;1.00;;;;;;4987026;28;20366;-76
2023/03/15 12:51:52;;;;;;;;;;;9.30;1.00;;;;;;5027930;28;19917;-76
2023/03/15 12:54:19;;;;;;;;;;;9.20;1.00;;;;;;5032007;28;19924;-76
2023/03/15 13:00:19;;;;;;;;;;;9.40;1.00;;;;;;5022681;28;19916;-81
2023/03/15 13:02:50;;;;;;;;;;;9.70;1.00;;;;;;5020256;28;19909;-80
2023/03/15 13:05:27;;;;;;;;;;;9.90;1.00;;;;;;5031938;28;19918;-79
2023/03/15 13:08:24;;;;;;;;;;;10.30;1.00;;;;;;5029893;28;19952;-78
2023/03/15 13:11:06;;;;;;;;;;;10.50;1.00;;;;;;5025830;28;19913;-79
2023/03/15 13:13:44;;;;;;;;;;;10.60;1.00;;;;;;5031554;28;20021;-78
2023/03/15 13:16:30;;;;;;;;;;;10.30;1.00;;;;;;5011882;28;19955;-79
2023/03/15 13:19:14;;;;;;;;;;;10.20;1.00;;;;;;5001101;28;20022;-78
2023/03/15 13:21:54;;;;;;;;;;;10.10;1.00;;;;;;5029113;28;20081;-79
2023/03/15 13:24:46;;;;;;;;;;;9.70;1.00;;;;;;5085520;28;20279;-79
2023/03/15 13:27:24;;;;;;;;;;;9.40;1.00;;;;;;5035373;28;20354;-79
2023/03/15 13:39:30;;;;;;;;;;;9.30;1.00;;;;;;5027505;28;19964;-79
2023/03/15 13:42:02;;;;;;;;;;;9.20;1.00;;;;;;5014940;28;19921;-79
2023/03/15 13:44:31;;;;;;;;;;;9.30;1.00;;;;;;4999056;28;19968;-79
2023/03/15 13:47:30;;;;;;;;;;;9.50;1.00;;;;;;5018920;28;19915;-79
2023/03/15 13:49:56;;;;;;;;;;;9.70;1.00;;;;;;5021679;28;19984;-78
2023/03/15 13:52:24;;;;;;;;;;;9.80;1.00;;;;;;5025786;28;20320;-79
2023/03/15 13:55:01;;;;;;;;;;;9.60;1.00;;;;;;5034991;28;19913;-79
2023/03/15 13:57:28;;;;;;;;;;;9.70;1.00;;;;;;5025297;28;19920;-79
2023/03/15 14:00:00;;;;;;;;;;;9.50;1.00;;;;;;5018314;28;19909;-79
2023/03/15 14:05:32;;;;;;;;;;;9.60;1.00;;;;;;5096130;28;19916;-79
2023/03/15 14:08:33;;;;;;;;;;;9.40;1.00;;;;;;5093088;28;19912;-79
2023/03/15 14:11:03;;;;;;;;;;;9.40;1.00;;;;;;5017425;28;20373;-78
2023/03/15 14:13:42;;;;;;;;;;;9.40;1.00;;;;;;5023117;28;19963;-78
2023/03/15 14:16:14;;;;;;;;;;;9.40;1.00;;;;;;5021376;28;20406;-78
2023/03/15 14:19:06;;;;;;;;;;;9.40;1.00;;;;;;5022996;28;19947;-79
2023/03/15 14:22:00;;;;;;;;;;;9.30;1.00;;;;;;5017489;28;20028;-79
2023/03/15 14:24:30;;;;;;;;;;;9.20;1.00;;;;;;5032704;28;19916;-80
2023/03/15 14:27:33;;;;;;;;;;;9.10;1.00;;;;;;5013373;28;20380;-79
2023/03/15 14:30:18;;;;;;;;;;;9.20;1.00;;;;;;4992985;28;20281;-79
2023/03/15 14:32:54;;;;;;;;;;;9.40;1.00;;;;;;4998417;28;20366;-79
2023/03/15 14:35:28;;;;;;;;;;;9.80;1.00;;;;;;5004967;28;19921;-79
2023/03/15 14:41:08;;;;;;;;;;;10.30;1.00;;;;;;5000656;28;19917;-85
2023/03/15 14:46:36;;;;;;;;;;;9.80;1.00;;;;;;5015292;28;19919;-85
2023/03/15 14:55:20;;;;;;;;;;;9.00;1.00;;;;;;5051190;28;20045;-77
2023/03/15 14:57:45;;;;;;;;;;;8.90;1.00;;;;;;5043531;28;20349;-75
2023/03/15 15:00:36;;;;;;;;;;;8.90;1.00;;;;;;5039989;28;20016;-80
2023/03/15 15:03:03;;;;;;;;;;;9.00;1.00;;;;;;5054367;28;19940;-79
2023/03/15 15:05:36;;;;;;;;;;;9.10;1.00;;;;;;5088859;28;19908;-80
2023/03/15 15:08:23;;;;;;;;;;;9.20;1.00;;;;;;5095604;28;19915;-81
2023/03/15 15:10:50;;;;;;;;;;;9.30;1.00;;;;;;5093052;28;19943;-76
2023/03/15 15:13:22;;;;;;;;;;;9.40;1.00;;;;;;5096021;28;20002;-76
2023/03/15 15:15:49;;;;;;;;;;;9.50;1.00;;;;;;5105989;28;20370;-77
2023/03/15 15:18:26;;;;;;;;;;;9.40;1.00;;;;;;5103932;28;19911;-77
2023/03/15 15:21:02;;;;;;;;;;;9.50;1.00;;;;;;5091569;28;19938;-78
2023/03/15 15:23:34;;;;;;;;;;;9.60;1.00;;;;;;5092535;28;19981;-77
2023/03/15 15:26:02;;;;;;;;;;;9.60;1.00;;;;;;5077003;28;19908;-78
2023/03/15 15:28:43;;;;;;;;;;;9.50;1.00;;;;;;5095282;28;19962;-77
2023/03/15 15:31:26;;;;;;;;;;;9.40;1.00;;;;;;5094437;28;20007;-78
2023/03/15 15:33:55;;;;;;;;;;;9.80;1.00;;;;;;5102333;28;20007;-77
2023/03/15 15:36:34;;;;;;;;;;;10.40;1.00;;;;;;5094856;28;19912;-77
2023/03/15 15:39:33;;;;;;;;;;;10.80;1.00;;;;;;5095360;28;19908;-77
2023/03/15 15:42:18;;;;;;;;;;;11.50;1.00;;;;;;5017120;28;20373;-77
2023/03/15 15:44:48;;;;;;;;;;;12.30;1.00;;;;;;5027406;28;19909;-76
2023/03/15 15:47:14;;;;;;;;;;;12.70;1.00;;;;;;5003949;28;19920;-78
2023/03/15 15:49:43;;;;;;;;;;;12.90;1.00;;;;;;5031735;28;19913;-83
2023/03/15 15:52:19;;;;;;;;;;;13.40;1.00;;;;;;5030883;28;19913;-76
2023/03/15 15:54:49;;;;;;;;;;;14.00;1.00;;;;;;5012308;28;19925;-78
2023/03/15 15:57:20;;;;;;;;;;;14.20;1.00;;;;;;5029265;28;19916;-76
2023/03/15 15:59:54;;;;;;;;;;;13.80;1.00;;;;;;5004500;28;20443;-75
2023/03/15 16:02:42;;;;;;;;;;;13.60;1.00;;;;;;5029926;28;19963;-75
2023/03/15 16:05:13;;;;;;;;;;;13.70;1.00;;;;;;5032047;28;19945;-75
2023/03/15 16:07:52;;;;;;;;;;;13.90;1.00;;;;;;5012744;28;19910;-75
2023/03/15 16:10:18;;;;;;;;;;;14.10;1.00;;;;;;5030333;28;19919;-76
2023/03/15 16:12:49;;;;;;;;;;;13.80;1.00;;;;;;5032499;28;19909;-75
2023/03/15 16:15:16;;;;;;;;;;;13.40;1.00;;;;;;5032471;28;19913;-76
2023/03/15 16:17:43;;;;;;;;;;;13.30;1.00;;;;;;5066784;28;20015;-79
2023/03/15 16:20:10;;;;;;;;;;;13.20;1.00;;;;;;5093695;28;20003;-75
2023/03/15 16:22:45;;;;;;;;;;;12.90;1.00;;;;;;5094377;28;19912;-77
2023/03/15 16:25:26;;;;;;;;;;;14.00;1.00;;;;;;5081706;28;19912;-80
2023/03/15 16:27:55;;;;;;;;;;;12.40;1.00;;;;;;5094207;28;20011;-79
2023/03/15 16:30:29;;;;;;;;;;;12.10;1.00;;;;;;5083835;28;19916;-79
2023/03/15 16:32:55;;;;;;;;;;;11.90;1.00;;;;;;5079000;28;19934;-79
2023/03/15 16:35:23;;;;;;;;;;;11.30;1.00;;;;;;5094003;28;19908;-79
2023/03/15 16:37:51;;;;;;;;;;;11.10;1.00;;;;;;5092303;28;19909;-80
2023/03/15 16:40:22;;;;;;;;;;;10.90;1.00;;;;;;5093356;28;19908;-79
2023/03/15 16:43:01;;;;;;;;;;;10.70;1.00;;;;;;5083147;28;20363;-79
2023/03/15 16:45:26;;;;;;;;;;;10.50;1.00;;;;;;5062749;28;20359;-78
2023/03/15 16:48:06;;;;;;;;;;;10.20;1.00;;;;;;5091357;28;19912;-78
2023/03/15 16:50:37;;;;;;;;;;;10.10;1.00;;;;;;5093594;28;19961;-79
2023/03/15 16:53:04;;;;;;;;;;;9.90;1.00;;;;;;5101038;28;19908;-79
2023/03/15 16:55:34;;;;;;;;;;;9.70;1.00;;;;;;5099447;28;20282;-79
2023/03/15 16:58:24;;;;;;;;;;;9.50;1.00;;;;;;5111399;28;19908;-79
2023/03/15 17:01:08;;;;;;;;;;;9.30;1.00;;;;;;5113855;28;19915;-78
2023/03/15 17:03:34;;;;;;;;;;;9.00;1.00;;;;;;5103201;28;20416;-80
2023/03/15 17:06:12;;;;;;;;;;;8.80;1.00;;;;;;5100622;28;19912;-77
2023/03/15 17:08:38;;;;;;;;;;;8.60;1.00;;;;;;5114623;28;20360;-75
2023/03/15 17:11:04;;;;;;;;;;;8.30;1.00;;;;;;5096312;28;19912;-77
2023/03/15 17:13:48;;;;;;;;;;;8.00;1.00;;;;;;5100417;28;19923;-79
2023/03/15 17:16:25;;;;;;;;;;;7.80;1.00;;;;;;5088036;28;19919;-80
2023/03/15 17:19:12;;;;;;;;;;;7.60;1.00;;;;;;5100200;28;19965;-79
2023/03/15 17:21:43;;;;;;;;;;;7.40;1.00;;;;;;5082222;28;19916;-75
2023/03/15 17:24:13;;;;;;;;;;;7.10;1.00;;;;;;5098594;28;19916;-75
2023/03/15 17:26:39;;;;;;;;;;;7.00;1.00;;;;;;5100355;28;19954;-75
2023/03/15 17:29:07;;;;;;;;;;;6.80;1.00;;;;;;5100514;28;19908;-76
2023/03/15 17:31:37;;;;;;;;;;;6.60;1.00;;;;;;5100293;28;19999;-76
2023/03/15 17:34:21;;;;;;;;;;;6.40;1.00;;;;;;5087494;28;19916;-76
2023/03/15 17:36:49;;;;;;;;;;;6.20;1.00;;;;;;5084750;28;19919;-76
2023/03/15 17:39:15;;;;;;;;;;;6.00;1.00;;;;;;5093826;28;19907;-78
2023/03/15 17:41:47;;;;;;;;;;;5.80;1.00;;;;;;5100537;28;19912;-78
2023/03/15 17:44:13;;;;;;;;;;;5.60;1.00;;;;;;5100282;28;19908;-78
2023/03/15 17:46:49;;;;;;;;;;;5.40;1.00;;;;;;5100007;28;20374;-78
2023/03/15 17:49:16;;;;;;;;;;;5.20;1.00;;;;;;5097723;28;19965;-78
2023/03/15 17:52:01;;;;;;;;;;;5.00;1.00;;;;;;5090364;28;19912;-78
2023/03/15 17:54:27;;;;;;;;;;;4.90;1.00;;;;;;5100370;28;20313;-78
2023/03/15 17:56:53;;;;;;;;;;;4.70;1.00;;;;;;5100219;28;19916;-79
2023/03/15 17:59:19;;;;;;;;;;;4.50;1.00;;;;;;5100213;28;19915;-78
2023/03/15 18:01:50;;;;;;;;;;;4.40;1.00;;;;;;5099630;28;20003;-78
2023/03/15 18:04:19;;;;;;;;;;;4.30;1.00;;;;;;5076247;28;19954;-78
2023/03/15 18:06:55;;;;;;;;;;;4.20;1.00;;;;;;5098826;28;19935;-77
2023/03/15 18:09:31;;;;;;;;;;;4.00;1.00;;;;;;5092581;28;19908;-77
2023/03/15 18:12:01;;;;;;;;;;;3.90;1.00;;;;;;5091732;28;19962;-78
2023/03/15 18:14:27;;;;;;;;;;;3.80;1.00;;;;;;5097087;28;20275;-78
2023/03/15 18:16:52;;;;;;;;;;;3.70;1.00;;;;;;5096565;28;19909;-78
2023/03/15 18:19:18;;;;;;;;;;;3.60;1.00;;;;;;5096774;28;19922;-80
2023/03/15 18:21:49;;;;;;;;;;;3.50;1.00;;;;;;5085859;28;20295;-80
2023/03/15 18:24:33;;;;;;;;;;;3.40;1.00;;;;;;5084924;28;20278;-78
2023/03/15 18:27:01;;;;;;;;;;;3.30;1.00;;;;;;5077869;28;19908;-78
2023/03/15 18:29:31;;;;;;;;;;;3.10;1.00;;;;;;5090913;28;20015;-78
2023/03/15 18:31:56;;;;;;;;;;;3.00;1.00;;;;;;5095490;28;19966;-78
2023/03/15 18:34:31;;;;;;;;;;;3.00;1.00;;;;;;5096463;28;20332;-78
2023/03/15 18:37:01;;;;;;;;;;;2.90;1.00;;;;;;5096637;28;19954;-76
2023/03/15 18:39:26;;;;;;;;;;;2.80;1.00;;;;;;5103351;28;19948;-80
2023/03/15 18:41:55;;;;;;;;;;;2.70;1.00;;;;;;5087422;28;19912;-78
2023/03/15 18:44:43;;;;;;;;;;;2.70;1.00;;;;;;5094141;28;19908;-80
2023/03/15 18:47:37;;;;;;;;;;;2.60;1.00;;;;;;5100202;28;19914;-78
2023/03/15 18:50:14;;;;;;;;;;;2.60;1.00;;;;;;5096303;28;19919;-79
2023/03/15 18:52:55;;;;;;;;;;;2.50;1.00;;;;;;5081793;28;19958;-78
2023/03/15 18:55:25;;;;;;;;;;;2.50;1.00;;;;;;5078272;28;20366;-78
2023/03/15 18:57:52;;;;;;;;;;;2.30;1.00;;;;;;5096016;28;19919;-78
2023/03/15 19:00:27;;;;;;;;;;;2.20;1.00;;;;;;5094537;28;19909;-78
2023/03/15 19:02:56;;;;;;;;;;;2.10;1.00;;;;;;5095594;28;19908;-79
2023/03/15 19:05:55;;;;;;;;;;;2.10;1.00;;;;;;5095892;28;19916;-79
2023/03/15 19:08:25;;;;;;;;;;;2.10;1.00;;;;;;5091468;28;19908;-79
2023/03/15 19:11:02;;;;;;;;;;;2.00;1.00;;;;;;5105736;28;19911;-74
2023/03/15 19:13:37;;;;;;;;;;;1.90;1.00;;;;;;5097468;28;19920;-74
2023/03/15 19:16:07;;;;;;;;;;;1.80;1.00;;;;;;5095961;28;19916;-74
2023/03/15 19:18:39;;;;;;;;;;;1.70;1.00;;;;;;5094823;28;19912;-73
2023/03/15 19:21:05;;;;;;;;;;;1.70;1.00;;;;;;5095279;28;19961;-73
2023/03/15 19:23:33;;;;;;;;;;;1.60;1.00;;;;;;5090546;28;19912;-74
2023/03/15 19:26:07;;;;;;;;;;;1.60;1.00;;;;;;5080107;28;19908;-75
2023/03/15 19:28:55;;;;;;;;;;;1.60;1.00;;;;;;5076969;28;20328;-81
2023/03/15 19:31:31;;;;;;;;;;;1.50;1.00;;;;;;5095055;28;19908;-82
2023/03/15 19:34:07;;;;;;;;;;;1.40;1.00;;;;;;5094911;28;19912;-82
2023/03/15 19:36:32;;;;;;;;;;;1.40;1.00;;;;;;5091199;28;19912;-82
2023/03/15 19:38:58;;;;;;;;;;;1.30;1.00;;;;;;5098835;28;20350;-81
2023/03/15 19:41:55;;;;;;;;;;;1.20;1.00;;;;;;5095648;28;19915;-82
2023/03/15 19:44:43;;;;;;;;;;;1.20;1.00;;;;;;5094500;28;19912;-82
2023/03/15 19:47:19;;;;;;;;;;;1.20;1.00;;;;;;5094935;28;19954;-82